sensor_id;sensor_type;location;lat;lon;timestamp;P1;durP1;ratioP1;P2;durP2;ratioP2
51732;SDS011;39139;53.144;6.244;2023-01-25T00:00:45;43.92;;;29.27;;
51732;SDS011;39139;53.144;6.244;2023-01-25T00:03:11;45.40;;;28.75;;
51732;SDS011;39139;53.144;6.244;2023-01-25T00:05:36;42.63;;;29.48;;
51732;SDS011;39139;53.144;6.244;2023-01-25T00:08:02;43.17;;;27.65;;
51732;SDS011;39139;53.144;6.244;2023-01-25T00:10:27;40.90;;;26.92;;
51732;SDS011;39139;53.144;6.244;2023-01-25T00:12:54;44.25;;;29.63;;
51732;SDS011;39139;53.144;6.244;2023-01-25T00:15:21;42.80;;;29.02;;
51732;SDS011;39139;53.144;6.244;2023-01-25T00:17:46;45.60;;;29.67;;
51732;SDS011;39139;53.144;6.244;2023-01-25T00:20:12;48.90;;;31.48;;
51732;SDS011;39139;53.144;6.244;2023-01-25T00:22:38;48.33;;;31.70;;
51732;SDS011;39139;53.144;6.244;2023-01-25T00:25:04;44.47;;;29.52;;
51732;SDS011;39139;53.144;6.244;2023-01-25T00:27:30;45.03;;;27.88;;
51732;SDS011;39139;53.144;6.244;2023-01-25T00:29:55;45.30;;;28.85;;
51732;SDS011;39139;53.144;6.244;2023-01-25T00:34:47;48.60;;;31.10;;
51732;SDS011;39139;53.144;6.244;2023-01-25T00:39:42;47.88;;;30.95;;
51732;SDS011;39139;53.144;6.244;2023-01-25T00:42:11;47.60;;;29.73;;
51732;SDS011;39139;53.144;6.244;2023-01-25T00:44:37;45.00;;;30.20;;
51732;SDS011;39139;53.144;6.244;2023-01-25T00:47:03;49.88;;;30.65;;
51732;SDS011;39139;53.144;6.244;2023-01-25T00:49:29;50.05;;;30.05;;
51732;SDS011;39139;53.144;6.244;2023-01-25T00:51:55;48.55;;;30.13;;
51732;SDS011;39139;53.144;6.244;2023-01-25T00:54:22;50.15;;;30.48;;
51732;SDS011;39139;53.144;6.244;2023-01-25T00:56:47;53.13;;;33.90;;
51732;SDS011;39139;53.144;6.244;2023-01-25T00:59:13;54.22;;;34.78;;
51732;SDS011;39139;53.144;6.244;2023-01-25T01:01:40;51.95;;;33.33;;
51732;SDS011;39139;53.144;6.244;2023-01-25T01:04:06;53.92;;;33.30;;
51732;SDS011;39139;53.144;6.244;2023-01-25T01:06:35;52.78;;;34.08;;
51732;SDS011;39139;53.144;6.244;2023-01-25T01:09:02;57.58;;;32.92;;
51732;SDS011;39139;53.144;6.244;2023-01-25T01:11:29;55.85;;;34.78;;
51732;SDS011;39139;53.144;6.244;2023-01-25T01:13:56;52.67;;;33.80;;
51732;SDS011;39139;53.144;6.244;2023-01-25T01:16:22;56.72;;;35.03;;
51732;SDS011;39139;53.144;6.244;2023-01-25T01:18:47;56.60;;;35.10;;
51732;SDS011;39139;53.144;6.244;2023-01-25T01:21:13;54.88;;;35.67;;
51732;SDS011;39139;53.144;6.244;2023-01-25T01:23:39;54.28;;;35.22;;
51732;SDS011;39139;53.144;6.244;2023-01-25T01:26:06;55.65;;;35.25;;
51732;SDS011;39139;53.144;6.244;2023-01-25T01:28:34;56.25;;;34.22;;
51732;SDS011;39139;53.144;6.244;2023-01-25T01:31:04;57.00;;;34.95;;
51732;SDS011;39139;53.144;6.244;2023-01-25T01:33:32;55.97;;;35.63;;
51732;SDS011;39139;53.144;6.244;2023-01-25T01:35:58;60.60;;;37.95;;
51732;SDS011;39139;53.144;6.244;2023-01-25T01:38:33;59.35;;;35.42;;
51732;SDS011;39139;53.144;6.244;2023-01-25T01:40:59;63.20;;;38.25;;
51732;SDS011;39139;53.144;6.244;2023-01-25T01:43:25;60.30;;;37.70;;
51732;SDS011;39139;53.144;6.244;2023-01-25T01:45:54;64.85;;;38.55;;
51732;SDS011;39139;53.144;6.244;2023-01-25T01:59:35;69.05;;;40.35;;
51732;SDS011;39139;53.144;6.244;2023-01-25T02:02:06;65.43;;;39.55;;
51732;SDS011;39139;53.144;6.244;2023-01-25T02:04:32;69.55;;;38.65;;
51732;SDS011;39139;53.144;6.244;2023-01-25T02:07:12;67.85;;;40.22;;
51732;SDS011;39139;53.144;6.244;2023-01-25T02:09:42;65.28;;;39.67;;
51732;SDS011;39139;53.144;6.244;2023-01-25T02:12:08;64.88;;;39.00;;
51732;SDS011;39139;53.144;6.244;2023-01-25T02:14:35;71.40;;;39.72;;
51732;SDS011;39139;53.144;6.244;2023-01-25T02:17:04;65.43;;;39.97;;
51732;SDS011;39139;53.144;6.244;2023-01-25T02:19:33;74.88;;;42.65;;
51732;SDS011;39139;53.144;6.244;2023-01-25T02:22:00;76.75;;;43.70;;
51732;SDS011;39139;53.144;6.244;2023-01-25T02:24:34;72.22;;;41.40;;
51732;SDS011;39139;53.144;6.244;2023-01-25T02:27:02;71.10;;;41.70;;
51732;SDS011;39139;53.144;6.244;2023-01-25T02:29:28;74.85;;;42.13;;
51732;SDS011;39139;53.144;6.244;2023-01-25T02:32:03;78.05;;;44.30;;
51732;SDS011;39139;53.144;6.244;2023-01-25T02:34:30;86.13;;;47.60;;
51732;SDS011;39139;53.144;6.244;2023-01-25T02:36:56;84.93;;;48.10;;
51732;SDS011;39139;53.144;6.244;2023-01-25T02:39:21;81.35;;;45.65;;
51732;SDS011;39139;53.144;6.244;2023-01-25T02:41:50;87.07;;;48.58;;
51732;SDS011;39139;53.144;6.244;2023-01-25T02:44:17;84.43;;;50.83;;
51732;SDS011;39139;53.144;6.244;2023-01-25T02:46:46;84.00;;;48.83;;
51732;SDS011;39139;53.144;6.244;2023-01-25T02:49:13;84.47;;;50.25;;
51732;SDS011;39139;53.144;6.244;2023-01-25T02:51:40;87.07;;;48.00;;
51732;SDS011;39139;53.144;6.244;2023-01-25T02:54:08;85.97;;;45.83;;
51732;SDS011;39139;53.144;6.244;2023-01-25T02:56:36;88.38;;;49.33;;
51732;SDS011;39139;53.144;6.244;2023-01-25T02:59:02;86.05;;;47.78;;
51732;SDS011;39139;53.144;6.244;2023-01-25T03:01:33;87.70;;;48.55;;
51732;SDS011;39139;53.144;6.244;2023-01-25T03:04:00;86.72;;;49.28;;
51732;SDS011;39139;53.144;6.244;2023-01-25T03:06:25;86.43;;;48.78;;
51732;SDS011;39139;53.144;6.244;2023-01-25T03:08:51;88.57;;;50.08;;
51732;SDS011;39139;53.144;6.244;2023-01-25T03:11:16;85.32;;;48.72;;
51732;SDS011;39139;53.144;6.244;2023-01-25T03:13:42;82.60;;;49.80;;
51732;SDS011;39139;53.144;6.244;2023-01-25T03:16:09;87.25;;;48.17;;
51732;SDS011;39139;53.144;6.244;2023-01-25T03:18:36;85.22;;;49.88;;
51732;SDS011;39139;53.144;6.244;2023-01-25T03:21:03;91.03;;;50.58;;
51732;SDS011;39139;53.144;6.244;2023-01-25T03:23:33;82.82;;;44.90;;
51732;SDS011;39139;53.144;6.244;2023-01-25T03:26:09;86.88;;;48.80;;
51732;SDS011;39139;53.144;6.244;2023-01-25T03:28:35;84.88;;;46.63;;
51732;SDS011;39139;53.144;6.244;2023-01-25T03:31:02;87.55;;;49.97;;
51732;SDS011;39139;53.144;6.244;2023-01-25T03:33:28;81.05;;;44.20;;
51732;SDS011;39139;53.144;6.244;2023-01-25T03:35:54;81.38;;;46.53;;
51732;SDS011;39139;53.144;6.244;2023-01-25T03:38:21;90.10;;;50.95;;
51732;SDS011;39139;53.144;6.244;2023-01-25T03:40:47;85.97;;;48.47;;
51732;SDS011;39139;53.144;6.244;2023-01-25T03:43:13;88.88;;;49.67;;
51732;SDS011;39139;53.144;6.244;2023-01-25T03:45:39;83.18;;;47.38;;
51732;SDS011;39139;53.144;6.244;2023-01-25T03:48:04;85.05;;;48.33;;
51732;SDS011;39139;53.144;6.244;2023-01-25T03:50:30;89.70;;;49.10;;
51732;SDS011;39139;53.144;6.244;2023-01-25T03:52:56;82.93;;;46.97;;
51732;SDS011;39139;53.144;6.244;2023-01-25T03:55:26;82.45;;;44.47;;
51732;SDS011;39139;53.144;6.244;2023-01-25T03:57:52;79.40;;;44.03;;
51732;SDS011;39139;53.144;6.244;2023-01-25T04:00:18;80.10;;;43.85;;
51732;SDS011;39139;53.144;6.244;2023-01-25T04:02:45;81.63;;;44.15;;
51732;SDS011;39139;53.144;6.244;2023-01-25T04:05:10;89.53;;;48.08;;
51732;SDS011;39139;53.144;6.244;2023-01-25T04:07:36;85.40;;;45.90;;
51732;SDS011;39139;53.144;6.244;2023-01-25T04:10:02;81.53;;;46.90;;
51732;SDS011;39139;53.144;6.244;2023-01-25T04:12:29;83.25;;;45.90;;
51732;SDS011;39139;53.144;6.244;2023-01-25T04:14:55;86.68;;;47.67;;
51732;SDS011;39139;53.144;6.244;2023-01-25T04:17:21;84.70;;;46.92;;
51732;SDS011;39139;53.144;6.244;2023-01-25T04:19:47;80.80;;;45.80;;
51732;SDS011;39139;53.144;6.244;2023-01-25T04:22:13;81.75;;;46.35;;
51732;SDS011;39139;53.144;6.244;2023-01-25T04:24:40;90.97;;;49.00;;
51732;SDS011;39139;53.144;6.244;2023-01-25T04:27:06;84.30;;;47.22;;
51732;SDS011;39139;53.144;6.244;2023-01-25T04:29:32;85.45;;;47.25;;
51732;SDS011;39139;53.144;6.244;2023-01-25T04:31:58;85.45;;;47.33;;
51732;SDS011;39139;53.144;6.244;2023-01-25T04:34:24;89.88;;;48.90;;
51732;SDS011;39139;53.144;6.244;2023-01-25T04:36:50;84.13;;;46.53;;
51732;SDS011;39139;53.144;6.244;2023-01-25T04:39:15;94.20;;;50.08;;
51732;SDS011;39139;53.144;6.244;2023-01-25T04:41:41;87.88;;;47.67;;
51732;SDS011;39139;53.144;6.244;2023-01-25T04:44:07;87.28;;;50.58;;
51732;SDS011;39139;53.144;6.244;2023-01-25T04:46:32;91.10;;;49.90;;
51732;SDS011;39139;53.144;6.244;2023-01-25T04:48:58;89.65;;;48.58;;
51732;SDS011;39139;53.144;6.244;2023-01-25T04:51:24;88.72;;;50.17;;
51732;SDS011;39139;53.144;6.244;2023-01-25T04:53:49;86.18;;;49.45;;
51732;SDS011;39139;53.144;6.244;2023-01-25T04:56:15;91.97;;;50.33;;
51732;SDS011;39139;53.144;6.244;2023-01-25T04:58:40;89.57;;;48.47;;
51732;SDS011;39139;53.144;6.244;2023-01-25T05:01:06;87.93;;;49.67;;
51732;SDS011;39139;53.144;6.244;2023-01-25T05:03:32;91.53;;;49.80;;
51732;SDS011;39139;53.144;6.244;2023-01-25T05:05:57;91.32;;;50.97;;
51732;SDS011;39139;53.144;6.244;2023-01-25T05:08:23;85.18;;;50.75;;
51732;SDS011;39139;53.144;6.244;2023-01-25T05:10:50;90.57;;;50.08;;
51732;SDS011;39139;53.144;6.244;2023-01-25T05:13:15;85.65;;;49.65;;
51732;SDS011;39139;53.144;6.244;2023-01-25T05:15:42;83.15;;;46.20;;
51732;SDS011;39139;53.144;6.244;2023-01-25T05:18:08;88.80;;;48.53;;
51732;SDS011;39139;53.144;6.244;2023-01-25T05:20:34;90.82;;;48.45;;
51732;SDS011;39139;53.144;6.244;2023-01-25T05:22:59;88.65;;;49.05;;
51732;SDS011;39139;53.144;6.244;2023-01-25T05:25:25;85.40;;;47.30;;
51732;SDS011;39139;53.144;6.244;2023-01-25T05:28:09;84.30;;;46.80;;
51732;SDS011;39139;53.144;6.244;2023-01-25T05:30:35;87.80;;;48.28;;
51732;SDS011;39139;53.144;6.244;2023-01-25T05:33:00;83.70;;;47.25;;
51732;SDS011;39139;53.144;6.244;2023-01-25T05:35:26;85.53;;;47.70;;
51732;SDS011;39139;53.144;6.244;2023-01-25T05:37:56;86.65;;;48.40;;
51732;SDS011;39139;53.144;6.244;2023-01-25T05:40:22;84.88;;;48.50;;
51732;SDS011;39139;53.144;6.244;2023-01-25T05:42:55;83.05;;;45.90;;
51732;SDS011;39139;53.144;6.244;2023-01-25T05:45:22;84.70;;;47.47;;
51732;SDS011;39139;53.144;6.244;2023-01-25T05:47:57;83.05;;;45.42;;
51732;SDS011;39139;53.144;6.244;2023-01-25T05:50:23;79.50;;;44.50;;
51732;SDS011;39139;53.144;6.244;2023-01-25T05:52:50;75.95;;;43.67;;
51732;SDS011;39139;53.144;6.244;2023-01-25T05:55:16;78.07;;;45.08;;
51732;SDS011;39139;53.144;6.244;2023-01-25T05:57:42;75.13;;;44.42;;
51732;SDS011;39139;53.144;6.244;2023-01-25T06:00:08;72.50;;;42.58;;
51732;SDS011;39139;53.144;6.244;2023-01-25T06:02:34;74.35;;;42.78;;
51732;SDS011;39139;53.144;6.244;2023-01-25T06:05:01;75.63;;;43.17;;
51732;SDS011;39139;53.144;6.244;2023-01-25T06:07:27;72.90;;;41.10;;
51732;SDS011;39139;53.144;6.244;2023-01-25T06:09:53;74.15;;;41.55;;
51732;SDS011;39139;53.144;6.244;2023-01-25T06:12:19;71.75;;;41.35;;
51732;SDS011;39139;53.144;6.244;2023-01-25T06:14:45;70.75;;;42.35;;
51732;SDS011;39139;53.144;6.244;2023-01-25T06:17:18;65.40;;;40.25;;
51732;SDS011;39139;53.144;6.244;2023-01-25T06:19:48;63.10;;;38.15;;
51732;SDS011;39139;53.144;6.244;2023-01-25T06:22:14;69.43;;;40.25;;
51732;SDS011;39139;53.144;6.244;2023-01-25T06:24:39;60.53;;;36.53;;
51732;SDS011;39139;53.144;6.244;2023-01-25T06:27:05;64.45;;;37.83;;
51732;SDS011;39139;53.144;6.244;2023-01-25T06:29:31;68.78;;;38.85;;
51732;SDS011;39139;53.144;6.244;2023-01-25T06:31:56;69.05;;;40.13;;
51732;SDS011;39139;53.144;6.244;2023-01-25T06:34:22;71.05;;;41.70;;
51732;SDS011;39139;53.144;6.244;2023-01-25T06:36:48;63.85;;;38.47;;
51732;SDS011;39139;53.144;6.244;2023-01-25T06:39:14;72.50;;;41.30;;
51732;SDS011;39139;53.144;6.244;2023-01-25T06:41:40;71.28;;;42.55;;
51732;SDS011;39139;53.144;6.244;2023-01-25T06:44:05;68.10;;;41.70;;
51732;SDS011;39139;53.144;6.244;2023-01-25T06:46:32;72.22;;;42.05;;
51732;SDS011;39139;53.144;6.244;2023-01-25T06:48:58;74.32;;;42.75;;
51732;SDS011;39139;53.144;6.244;2023-01-25T06:51:24;73.63;;;41.75;;
51732;SDS011;39139;53.144;6.244;2023-01-25T06:53:49;68.35;;;41.35;;
51732;SDS011;39139;53.144;6.244;2023-01-25T06:56:16;69.13;;;41.10;;
51732;SDS011;39139;53.144;6.244;2023-01-25T07:03:51;75.13;;;43.33;;
51732;SDS011;39139;53.144;6.244;2023-01-25T07:06:18;78.55;;;44.90;;
51732;SDS011;39139;53.144;6.244;2023-01-25T07:08:45;81.68;;;46.05;;
51732;SDS011;39139;53.144;6.244;2023-01-25T07:11:12;73.03;;;43.20;;
51732;SDS011;39139;53.144;6.244;2023-01-25T07:13:38;73.10;;;41.65;;
51732;SDS011;39139;53.144;6.244;2023-01-25T07:16:06;69.53;;;40.50;;
51732;SDS011;39139;53.144;6.244;2023-01-25T07:18:34;71.95;;;42.03;;
51732;SDS011;39139;53.144;6.244;2023-01-25T07:21:08;72.00;;;40.80;;
51732;SDS011;39139;53.144;6.244;2023-01-25T07:23:35;65.53;;;38.47;;
51732;SDS011;39139;53.144;6.244;2023-01-25T07:26:03;65.93;;;38.58;;
51732;SDS011;39139;53.144;6.244;2023-01-25T07:28:30;69.97;;;41.88;;
51732;SDS011;39139;53.144;6.244;2023-01-25T07:31:03;70.38;;;41.47;;
51732;SDS011;39139;53.144;6.244;2023-01-25T07:33:30;72.55;;;40.65;;
51732;SDS011;39139;53.144;6.244;2023-01-25T07:36:03;71.88;;;40.90;;
51732;SDS011;39139;53.144;6.244;2023-01-25T07:38:31;75.22;;;43.38;;
51732;SDS011;39139;53.144;6.244;2023-01-25T07:40:57;79.55;;;45.33;;
51732;SDS011;39139;53.144;6.244;2023-01-25T07:43:22;75.47;;;44.53;;
51732;SDS011;39139;53.144;6.244;2023-01-25T07:45:48;74.95;;;43.35;;
51732;SDS011;39139;53.144;6.244;2023-01-25T07:48:14;79.55;;;43.75;;
51732;SDS011;39139;53.144;6.244;2023-01-25T07:50:41;80.20;;;42.75;;
51732;SDS011;39139;53.144;6.244;2023-01-25T07:53:10;74.43;;;42.88;;
51732;SDS011;39139;53.144;6.244;2023-01-25T07:55:37;75.70;;;43.72;;
51732;SDS011;39139;53.144;6.244;2023-01-25T07:58:03;78.80;;;45.70;;
51732;SDS011;39139;53.144;6.244;2023-01-25T08:00:29;80.95;;;45.25;;
51732;SDS011;39139;53.144;6.244;2023-01-25T08:02:54;75.75;;;43.72;;
51732;SDS011;39139;53.144;6.244;2023-01-25T08:05:20;80.45;;;46.80;;
51732;SDS011;39139;53.144;6.244;2023-01-25T08:07:46;87.25;;;47.95;;
51732;SDS011;39139;53.144;6.244;2023-01-25T08:10:12;82.35;;;45.95;;
51732;SDS011;39139;53.144;6.244;2023-01-25T08:12:38;81.07;;;44.15;;
51732;SDS011;39139;53.144;6.244;2023-01-25T08:15:04;83.97;;;44.15;;
51732;SDS011;39139;53.144;6.244;2023-01-25T08:17:30;80.72;;;44.03;;
51732;SDS011;39139;53.144;6.244;2023-01-25T08:19:57;77.80;;;42.08;;
51732;SDS011;39139;53.144;6.244;2023-01-25T08:22:24;81.93;;;44.13;;
51732;SDS011;39139;53.144;6.244;2023-01-25T08:24:50;81.80;;;42.90;;
51732;SDS011;39139;53.144;6.244;2023-01-25T08:27:16;82.68;;;43.92;;
51732;SDS011;39139;53.144;6.244;2023-01-25T08:29:42;83.13;;;44.13;;
51732;SDS011;39139;53.144;6.244;2023-01-25T08:32:07;85.97;;;46.17;;
51732;SDS011;39139;53.144;6.244;2023-01-25T08:34:36;89.45;;;46.75;;
51732;SDS011;39139;53.144;6.244;2023-01-25T08:37:01;88.38;;;48.75;;
51732;SDS011;39139;53.144;6.244;2023-01-25T08:39:27;84.45;;;45.47;;
51732;SDS011;39139;53.144;6.244;2023-01-25T08:41:56;88.18;;;46.53;;
51732;SDS011;39139;53.144;6.244;2023-01-25T08:44:21;89.80;;;47.25;;
51732;SDS011;39139;53.144;6.244;2023-01-25T08:46:49;91.30;;;49.42;;
51732;SDS011;39139;53.144;6.244;2023-01-25T08:49:15;86.78;;;47.50;;
51732;SDS011;39139;53.144;6.244;2023-01-25T08:51:41;84.93;;;46.95;;
51732;SDS011;39139;53.144;6.244;2023-01-25T08:54:09;85.18;;;44.88;;
51732;SDS011;39139;53.144;6.244;2023-01-25T08:56:36;85.10;;;46.72;;
51732;SDS011;39139;53.144;6.244;2023-01-25T08:59:03;89.00;;;46.72;;
51732;SDS011;39139;53.144;6.244;2023-01-25T09:01:30;79.95;;;44.33;;
51732;SDS011;39139;53.144;6.244;2023-01-25T09:03:55;86.60;;;45.88;;
51732;SDS011;39139;53.144;6.244;2023-01-25T09:06:21;88.70;;;47.00;;
51732;SDS011;39139;53.144;6.244;2023-01-25T09:08:47;84.30;;;46.30;;
51732;SDS011;39139;53.144;6.244;2023-01-25T09:11:14;81.60;;;43.08;;
51732;SDS011;39139;53.144;6.244;2023-01-25T09:13:42;86.90;;;44.78;;
51732;SDS011;39139;53.144;6.244;2023-01-25T09:16:12;82.88;;;44.83;;
51732;SDS011;39139;53.144;6.244;2023-01-25T09:18:40;82.07;;;42.83;;
51732;SDS011;39139;53.144;6.244;2023-01-25T09:21:11;82.85;;;45.10;;
51732;SDS011;39139;53.144;6.244;2023-01-25T09:23:42;86.47;;;46.17;;
51732;SDS011;39139;53.144;6.244;2023-01-25T09:26:08;87.70;;;45.75;;
51732;SDS011;39139;53.144;6.244;2023-01-25T09:28:35;86.60;;;42.75;;
51732;SDS011;39139;53.144;6.244;2023-01-25T09:31:03;82.60;;;43.17;;
51732;SDS011;39139;53.144;6.244;2023-01-25T09:33:34;73.57;;;40.35;;
51732;SDS011;39139;53.144;6.244;2023-01-25T09:36:00;74.57;;;36.08;;
51732;SDS011;39139;53.144;6.244;2023-01-25T09:38:26;82.00;;;40.22;;
51732;SDS011;39139;53.144;6.244;2023-01-25T09:44:17;77.75;;;36.75;;
51732;SDS011;39139;53.144;6.244;2023-01-25T09:46:49;71.22;;;35.65;;
51732;SDS011;39139;53.144;6.244;2023-01-25T09:49:34;81.97;;;37.95;;
51732;SDS011;39139;53.144;6.244;2023-01-25T09:54:46;74.00;;;37.65;;
51732;SDS011;39139;53.144;6.244;2023-01-25T09:57:16;76.07;;;39.17;;
51732;SDS011;39139;53.144;6.244;2023-01-25T09:59:46;72.78;;;35.38;;
51732;SDS011;39139;53.144;6.244;2023-01-25T10:02:33;71.82;;;38.22;;
51732;SDS011;39139;53.144;6.244;2023-01-25T10:05:17;78.25;;;40.13;;
51732;SDS011;39139;53.144;6.244;2023-01-25T10:13:09;75.63;;;38.58;;
51732;SDS011;39139;53.144;6.244;2023-01-25T10:15:38;74.97;;;34.80;;
51732;SDS011;39139;53.144;6.244;2023-01-25T10:20:57;82.60;;;39.65;;
51732;SDS011;39139;53.144;6.244;2023-01-25T10:26:25;80.10;;;38.33;;
51732;SDS011;39139;53.144;6.244;2023-01-25T10:34:22;80.22;;;40.72;;
51732;SDS011;39139;53.144;6.244;2023-01-25T10:37:16;88.55;;;41.85;;
51732;SDS011;39139;53.144;6.244;2023-01-25T10:39:51;84.35;;;39.80;;
51732;SDS011;39139;53.144;6.244;2023-01-25T10:42:18;79.13;;;35.35;;
51732;SDS011;39139;53.144;6.244;2023-01-25T10:44:46;81.00;;;40.08;;
51732;SDS011;39139;53.144;6.244;2023-01-25T10:49:46;84.38;;;41.47;;
51732;SDS011;39139;53.144;6.244;2023-01-25T10:54:45;84.50;;;40.72;;
51732;SDS011;39139;53.144;6.244;2023-01-25T10:57:18;89.00;;;41.55;;
51732;SDS011;39139;53.144;6.244;2023-01-25T10:59:47;90.03;;;40.03;;
51732;SDS011;39139;53.144;6.244;2023-01-25T11:05:15;91.43;;;43.72;;
51732;SDS011;39139;53.144;6.244;2023-01-25T11:07:45;90.57;;;39.05;;
51732;SDS011;39139;53.144;6.244;2023-01-25T11:10:26;86.15;;;40.60;;
51732;SDS011;39139;53.144;6.244;2023-01-25T11:15:51;84.47;;;40.20;;
51732;SDS011;39139;53.144;6.244;2023-01-25T11:18:21;85.78;;;39.25;;
51732;SDS011;39139;53.144;6.244;2023-01-25T11:21:02;82.20;;;36.28;;
51732;SDS011;39139;53.144;6.244;2023-01-25T11:23:30;89.13;;;39.85;;
51732;SDS011;39139;53.144;6.244;2023-01-25T11:28:37;80.32;;;33.88;;
51732;SDS011;39139;53.144;6.244;2023-01-25T11:31:02;89.80;;;42.05;;
51732;SDS011;39139;53.144;6.244;2023-01-25T11:33:29;95.75;;;40.35;;
51732;SDS011;39139;53.144;6.244;2023-01-25T11:47:30;91.53;;;40.88;;
51732;SDS011;39139;53.144;6.244;2023-01-25T11:55:28;96.20;;;39.42;;
51732;SDS011;39139;53.144;6.244;2023-01-25T11:58:02;86.20;;;37.30;;
51732;SDS011;39139;53.144;6.244;2023-01-25T12:03:35;101.78;;;39.83;;
51732;SDS011;39139;53.144;6.244;2023-01-25T12:20:09;100.30;;;41.10;;
51732;SDS011;39139;53.144;6.244;2023-01-25T12:28:28;108.32;;;42.75;;
51732;SDS011;39139;53.144;6.244;2023-01-25T12:31:33;91.45;;;39.20;;
51732;SDS011;39139;53.144;6.244;2023-01-25T12:34:09;110.85;;;44.30;;
51732;SDS011;39139;53.144;6.244;2023-01-25T12:36:47;111.28;;;43.17;;
51732;SDS011;39139;53.144;6.244;2023-01-25T12:39:27;97.30;;;39.10;;
51732;SDS011;39139;53.144;6.244;2023-01-25T12:42:06;96.95;;;37.58;;
51732;SDS011;39139;53.144;6.244;2023-01-25T12:44:54;97.57;;;39.95;;
51732;SDS011;39139;53.144;6.244;2023-01-25T12:50:37;96.43;;;39.60;;
51732;SDS011;39139;53.144;6.244;2023-01-25T12:55:42;99.70;;;40.45;;
51732;SDS011;39139;53.144;6.244;2023-01-25T12:58:14;100.72;;;39.88;;
51732;SDS011;39139;53.144;6.244;2023-01-25T13:03:24;105.55;;;41.90;;
51732;SDS011;39139;53.144;6.244;2023-01-25T13:05:57;105.35;;;40.15;;
51732;SDS011;39139;53.144;6.244;2023-01-25T13:11:17;96.68;;;38.67;;
51732;SDS011;39139;53.144;6.244;2023-01-25T13:13:46;111.47;;;41.67;;
51732;SDS011;39139;53.144;6.244;2023-01-25T13:18:46;107.32;;;41.38;;
51732;SDS011;39139;53.144;6.244;2023-01-25T13:21:36;104.10;;;41.92;;
51732;SDS011;39139;53.144;6.244;2023-01-25T13:32:00;109.03;;;43.38;;
51732;SDS011;39139;53.144;6.244;2023-01-25T13:37:00;112.28;;;40.05;;
51732;SDS011;39139;53.144;6.244;2023-01-25T13:42:02;105.85;;;44.15;;
51732;SDS011;39139;53.144;6.244;2023-01-25T13:44:41;102.10;;;42.75;;
51732;SDS011;39139;53.144;6.244;2023-01-25T13:47:10;104.87;;;45.50;;
51732;SDS011;39139;53.144;6.244;2023-01-25T13:52:16;102.53;;;43.53;;
51732;SDS011;39139;53.144;6.244;2023-01-25T13:54:43;100.90;;;43.90;;
51732;SDS011;39139;53.144;6.244;2023-01-25T13:57:12;87.40;;;37.05;;
51732;SDS011;39139;53.144;6.244;2023-01-25T13:59:40;105.20;;;44.63;;
51732;SDS011;39139;53.144;6.244;2023-01-25T14:02:19;100.10;;;40.92;;
51732;SDS011;39139;53.144;6.244;2023-01-25T14:04:49;100.65;;;37.00;;
51732;SDS011;39139;53.144;6.244;2023-01-25T14:07:17;110.90;;;43.85;;
51732;SDS011;39139;53.144;6.244;2023-01-25T14:09:44;101.70;;;42.63;;
51732;SDS011;39139;53.144;6.244;2023-01-25T14:12:15;101.35;;;43.13;;
51732;SDS011;39139;53.144;6.244;2023-01-25T14:17:43;106.63;;;43.15;;
51732;SDS011;39139;53.144;6.244;2023-01-25T14:20:16;101.15;;;43.63;;
51732;SDS011;39139;53.144;6.244;2023-01-25T14:22:45;112.03;;;46.55;;
51732;SDS011;39139;53.144;6.244;2023-01-25T14:25:18;105.53;;;45.03;;
51732;SDS011;39139;53.144;6.244;2023-01-25T14:27:47;103.70;;;44.22;;
51732;SDS011;39139;53.144;6.244;2023-01-25T14:32:44;103.88;;;43.15;;
51732;SDS011;39139;53.144;6.244;2023-01-25T14:37:54;112.20;;;45.25;;
51732;SDS011;39139;53.144;6.244;2023-01-25T14:40:21;97.43;;;41.45;;
51732;SDS011;39139;53.144;6.244;2023-01-25T14:42:48;105.40;;;44.38;;
51732;SDS011;39139;53.144;6.244;2023-01-25T14:45:15;108.50;;;47.60;;
51732;SDS011;39139;53.144;6.244;2023-01-25T14:47:41;105.25;;;45.53;;
51732;SDS011;39139;53.144;6.244;2023-01-25T14:52:58;107.75;;;46.40;;
51732;SDS011;39139;53.144;6.244;2023-01-25T14:55:30;118.13;;;48.45;;
51732;SDS011;39139;53.144;6.244;2023-01-25T14:57:57;108.35;;;48.33;;
51732;SDS011;39139;53.144;6.244;2023-01-25T15:00:25;107.05;;;45.83;;
51732;SDS011;39139;53.144;6.244;2023-01-25T15:02:57;108.93;;;47.60;;
51732;SDS011;39139;53.144;6.244;2023-01-25T15:05:26;120.57;;;49.38;;
51732;SDS011;39139;53.144;6.244;2023-01-25T15:10:32;117.18;;;47.17;;
51732;SDS011;39139;53.144;6.244;2023-01-25T15:15:28;121.47;;;50.58;;
51732;SDS011;39139;53.144;6.244;2023-01-25T15:17:56;114.88;;;46.47;;
51732;SDS011;39139;53.144;6.244;2023-01-25T15:20:26;119.38;;;50.60;;
51732;SDS011;39139;53.144;6.244;2023-01-25T15:23:18;116.80;;;49.45;;
51732;SDS011;39139;53.144;6.244;2023-01-25T15:25:55;112.63;;;48.28;;
51732;SDS011;39139;53.144;6.244;2023-01-25T15:28:26;114.20;;;48.80;;
51732;SDS011;39139;53.144;6.244;2023-01-25T15:30:53;115.47;;;47.87;;
51732;SDS011;39139;53.144;6.244;2023-01-25T15:33:25;112.80;;;49.10;;
51732;SDS011;39139;53.144;6.244;2023-01-25T15:35:52;118.82;;;46.58;;
51732;SDS011;39139;53.144;6.244;2023-01-25T15:38:19;114.75;;;47.08;;
51732;SDS011;39139;53.144;6.244;2023-01-25T15:40:46;116.05;;;48.03;;
51732;SDS011;39139;53.144;6.244;2023-01-25T15:43:12;110.88;;;48.15;;
51732;SDS011;39139;53.144;6.244;2023-01-25T15:45:42;121.40;;;50.10;;
51732;SDS011;39139;53.144;6.244;2023-01-25T15:48:13;119.95;;;49.50;;
51732;SDS011;39139;53.144;6.244;2023-01-25T15:50:42;125.80;;;50.17;;
51732;SDS011;39139;53.144;6.244;2023-01-25T15:53:14;117.85;;;48.47;;
51732;SDS011;39139;53.144;6.244;2023-01-25T15:55:41;119.28;;;51.25;;
51732;SDS011;39139;53.144;6.244;2023-01-25T15:58:16;117.80;;;49.78;;
51732;SDS011;39139;53.144;6.244;2023-01-25T16:00:50;127.65;;;51.58;;
51732;SDS011;39139;53.144;6.244;2023-01-25T16:03:15;125.10;;;52.20;;
51732;SDS011;39139;53.144;6.244;2023-01-25T16:05:44;125.35;;;51.10;;
51732;SDS011;39139;53.144;6.244;2023-01-25T16:08:14;121.25;;;52.47;;
51732;SDS011;39139;53.144;6.244;2023-01-25T16:10:41;126.13;;;50.97;;
51732;SDS011;39139;53.144;6.244;2023-01-25T16:13:09;136.65;;;51.17;;
51732;SDS011;39139;53.144;6.244;2023-01-25T16:15:36;123.05;;;52.00;;
51732;SDS011;39139;53.144;6.244;2023-01-25T16:18:02;119.68;;;48.03;;
51732;SDS011;39139;53.144;6.244;2023-01-25T16:20:28;117.88;;;48.33;;
51732;SDS011;39139;53.144;6.244;2023-01-25T16:22:54;121.45;;;49.78;;
51732;SDS011;39139;53.144;6.244;2023-01-25T16:25:20;117.22;;;49.13;;
51732;SDS011;39139;53.144;6.244;2023-01-25T16:27:45;123.15;;;50.28;;
51732;SDS011;39139;53.144;6.244;2023-01-25T16:30:16;117.38;;;51.28;;
51732;SDS011;39139;53.144;6.244;2023-01-25T16:32:44;123.90;;;49.85;;
51732;SDS011;39139;53.144;6.244;2023-01-25T16:35:10;122.25;;;49.53;;
51732;SDS011;39139;53.144;6.244;2023-01-25T16:37:37;119.82;;;46.72;;
51732;SDS011;39139;53.144;6.244;2023-01-25T16:40:02;118.20;;;45.05;;
51732;SDS011;39139;53.144;6.244;2023-01-25T16:42:28;116.38;;;46.47;;
51732;SDS011;39139;53.144;6.244;2023-01-25T16:44:54;110.35;;;41.70;;
51732;SDS011;39139;53.144;6.244;2023-01-25T16:47:20;125.88;;;50.90;;